createdAt,value
2022-08-12T00:05:08.964Z,13.21
2022-08-12T00:11:12.441Z,13.18
2022-08-12T00:18:03.525Z,13.12
2022-08-12T00:25:03.339Z,13.09
2022-08-12T00:31:51.255Z,13.06
2022-08-12T00:38:35.590Z,13.05
2022-08-12T00:45:35.813Z,12.98
2022-08-12T00:52:00.705Z,12.95
2022-08-12T00:58:42.334Z,12.91
2022-08-12T01:05:44.291Z,12.88
2022-08-12T01:12:09.281Z,12.84
2022-08-12T01:18:34.901Z,12.80
2022-08-12T01:25:32.987Z,12.76
2022-08-12T01:32:12.419Z,12.70
2022-08-12T01:39:05.744Z,12.61
2022-08-12T01:46:04.434Z,12.53
2022-08-12T01:52:42.768Z,12.52
2022-08-12T01:59:12.627Z,12.54
2022-08-12T02:06:35.926Z,12.54
2022-08-12T02:13:48.321Z,12.57
2022-08-12T02:20:51.389Z,12.57
2022-08-12T02:27:39.293Z,12.62
2022-08-12T02:34:42.778Z,12.62
2022-08-12T02:41:07.241Z,12.56
2022-08-12T02:48:08.657Z,12.52
2022-08-12T02:54:28.385Z,12.44
2022-08-12T03:01:03.657Z,12.37
2022-08-12T03:08:14.294Z,12.29
2022-08-12T03:15:35.173Z,12.23
2022-08-12T03:22:19.302Z,12.18
2022-08-12T03:29:11.807Z,12.15
2022-08-12T03:35:56.927Z,12.14
2022-08-12T03:43:05.289Z,12.23
2022-08-12T03:49:44.667Z,12.30
2022-08-12T03:57:06.358Z,12.42
2022-08-12T04:04:13.163Z,12.52
2022-08-12T04:11:02.878Z,12.60
2022-08-12T04:17:09.453Z,12.70
2022-08-12T04:23:46.232Z,12.80
2022-08-12T04:30:40.330Z,12.93
2022-08-12T04:36:38.324Z,13.06
2022-08-12T04:44:00.148Z,13.24
2022-08-12T04:50:35.265Z,13.43
2022-08-12T04:57:13.255Z,13.63
2022-08-12T05:04:16.310Z,13.84
2022-08-12T05:11:14.526Z,14.13
2022-08-12T05:17:55.319Z,14.36
2022-08-12T05:24:58.764Z,14.57
2022-08-12T05:31:47.786Z,14.77
2022-08-12T05:38:13.434Z,15.00
2022-08-12T05:45:06.309Z,15.22
2022-08-12T05:52:09.964Z,15.46
2022-08-12T05:58:55.462Z,15.68
2022-08-12T06:05:10.663Z,15.96
2022-08-12T06:11:31.660Z,16.20
2022-08-12T06:17:56.213Z,16.47
2022-08-12T06:23:42.518Z,16.72
2022-08-12T06:30:09.042Z,16.92
2022-08-12T06:35:52.371Z,17.04
2022-08-12T06:42:31.840Z,17.22
2022-08-12T06:48:07.170Z,17.41
2022-08-12T06:54:00.955Z,17.59
2022-08-12T07:00:13.206Z,17.80
2022-08-12T07:06:42.360Z,18.09
2022-08-12T07:14:02.459Z,18.34
2022-08-12T07:20:04.487Z,18.70
2022-08-12T07:25:41.709Z,18.97
2022-08-12T07:31:37.734Z,19.21
2022-08-12T07:37:25.737Z,19.52
2022-08-12T07:44:04.356Z,19.78
2022-08-12T07:50:06.624Z,20.13
2022-08-12T07:56:29.086Z,20.46
2022-08-12T08:01:49.911Z,20.78
2022-08-12T08:07:38.806Z,21.27
2022-08-12T08:13:24.458Z,21.73
2022-08-12T08:18:53.505Z,22.10
2022-08-12T08:24:28.170Z,22.35
2022-08-12T08:30:19.605Z,22.36
2022-08-12T08:35:57.307Z,22.41
2022-08-12T08:42:18.802Z,22.49
2022-08-12T08:47:44.302Z,22.65
2022-08-12T08:53:36.569Z,22.82
2022-08-12T08:59:04.680Z,23.06
2022-08-12T09:05:07.873Z,23.23
2022-08-12T09:16:23.223Z,23.26
2022-08-12T09:22:04.827Z,23.34
2022-08-12T09:28:15.904Z,23.57
2022-08-12T09:34:27.833Z,23.87
2022-08-12T09:40:02.372Z,24.20
2022-08-12T09:46:19.684Z,24.60
2022-08-12T09:51:22.124Z,24.58
2022-08-12T09:56:58.276Z,24.76
2022-08-12T10:02:45.788Z,25.00
2022-08-12T10:07:39.874Z,25.16
2022-08-12T10:13:12.345Z,25.37
2022-08-12T10:18:51.726Z,25.47
2022-08-12T10:24:25.036Z,25.64
2022-08-12T10:30:38.702Z,26.00
2022-08-12T10:35:54.147Z,26.20
2022-08-12T10:42:29.454Z,26.41
2022-08-12T10:48:20.122Z,26.60
2022-08-12T10:54:22.491Z,26.81
2022-08-12T11:00:30.826Z,26.93
2022-08-12T11:07:09.740Z,27.01
2022-08-12T11:11:13.928Z,27.09
2022-08-12T11:16:27.780Z,27.15
2022-08-12T11:21:58.352Z,27.01
2022-08-12T11:27:22.442Z,27.01
2022-08-12T11:33:11.786Z,27.16
2022-08-12T11:38:20.364Z,27.37
2022-08-12T11:43:25.350Z,27.49
2022-08-12T11:48:57.811Z,27.47
2022-08-12T11:54:04.662Z,27.52
2022-08-12T12:04:37.377Z,27.43
2022-08-12T12:09:52.935Z,27.44
2022-08-12T12:15:07.109Z,27.58
2022-08-12T12:20:12.495Z,27.67
2022-08-12T12:26:07.412Z,27.88
2022-08-12T12:31:14.910Z,27.87
2022-08-12T12:36:54.798Z,27.93
2022-08-12T12:42:43.230Z,27.84
2022-08-12T12:48:10.922Z,27.93
2022-08-12T12:54:07.948Z,27.98
2022-08-12T12:58:44.810Z,28.14
2022-08-12T13:03:55.386Z,28.24
2022-08-12T13:09:03.010Z,28.29
2022-08-12T13:14:12.086Z,28.16
2022-08-12T13:19:38.919Z,28.06
2022-08-12T13:24:54.518Z,27.94
2022-08-12T13:30:23.750Z,27.89
2022-08-12T13:36:05.046Z,27.88
2022-08-12T13:41:37.925Z,27.84
2022-08-12T13:46:58.990Z,27.59
2022-08-12T13:52:15.404Z,27.33
2022-08-12T13:57:46.828Z,27.21
2022-08-12T14:02:53.137Z,27.16
2022-08-12T14:08:08.719Z,26.96
2022-08-12T14:14:06.104Z,26.99
2022-08-12T14:19:21.907Z,27.03
2022-08-12T14:24:35.668Z,27.09
2022-08-12T14:30:04.380Z,27.23
2022-08-12T14:35:41.097Z,27.32
2022-08-12T14:40:53.265Z,27.29
2022-08-12T14:46:19.930Z,27.34
2022-08-12T14:52:44.180Z,27.30
2022-08-12T14:57:20.604Z,27.34
2022-08-12T15:02:15.840Z,27.43
2022-08-12T15:07:43.649Z,27.48
2022-08-12T15:12:52.061Z,27.24
2022-08-12T15:18:02.459Z,26.87
2022-08-12T15:23:18.173Z,26.51
2022-08-12T15:28:30.766Z,26.52
2022-08-12T15:33:44.675Z,26.71
2022-08-12T15:38:48.035Z,27.02
2022-08-12T15:44:15.823Z,27.20
2022-08-12T15:49:19.371Z,27.04
2022-08-12T15:54:44.640Z,26.72
2022-08-12T16:00:03.842Z,26.69
2022-08-12T16:06:15.625Z,26.65
2022-08-12T16:10:53.997Z,26.65
2022-08-12T16:16:23.595Z,26.68
2022-08-12T16:21:50.272Z,26.72
2022-08-12T16:26:54.055Z,26.73
2022-08-12T16:32:07.483Z,26.73
2022-08-12T16:38:24.902Z,26.72
2022-08-12T16:43:37.284Z,26.64
2022-08-12T16:48:39.650Z,26.45
2022-08-12T16:53:45.653Z,26.27
2022-08-12T16:59:00.733Z,26.02
2022-08-12T17:04:14.354Z,25.76
2022-08-12T17:09:39.887Z,25.50
2022-08-12T17:14:47.238Z,25.24
2022-08-12T17:20:34.505Z,25.06
2022-08-12T17:26:06.668Z,24.91
2022-08-12T17:32:01.713Z,24.78
2022-08-12T17:37:04.809Z,24.57
2022-08-12T17:42:51.043Z,24.38
2022-08-12T17:48:17.547Z,24.14
2022-08-12T17:54:10.494Z,23.88
2022-08-12T17:59:47.892Z,23.60
2022-08-12T18:05:55.492Z,23.32
2022-08-12T18:12:03.718Z,23.04
2022-08-12T18:18:51.095Z,22.73
2022-08-12T18:25:06.346Z,22.44
2022-08-12T18:30:43.544Z,22.18
2022-08-12T18:36:50.327Z,21.94
2022-08-12T18:43:02.597Z,21.69
2022-08-12T18:49:34.623Z,21.49
2022-08-12T18:56:06.107Z,21.29
2022-08-12T19:02:19.686Z,21.18
2022-08-12T19:08:24.660Z,21.10
2022-08-12T19:15:18.350Z,20.98
2022-08-12T19:21:32.142Z,20.88
2022-08-12T19:27:08.514Z,20.78
2022-08-12T19:33:39.534Z,20.68
2022-08-12T19:40:31.392Z,20.68
2022-08-12T19:46:18.676Z,20.67
2022-08-12T19:52:32.702Z,20.65
2022-08-12T19:58:41.682Z,20.58
2022-08-12T20:04:38.680Z,20.50
2022-08-12T20:10:35.078Z,20.48
2022-08-12T20:16:04.168Z,20.45
2022-08-12T20:21:48.254Z,20.37
2022-08-12T20:28:31.564Z,20.26
2022-08-12T20:34:48.285Z,20.18
2022-08-12T20:40:58.690Z,20.09
2022-08-12T20:46:37.965Z,19.98
2022-08-12T20:52:29.878Z,19.96
2022-08-12T20:58:31.056Z,19.90
2022-08-12T21:04:36.906Z,19.76
2022-08-12T21:10:26.516Z,19.62
2022-08-12T21:17:34.015Z,19.50
2022-08-12T21:23:59.140Z,19.41
2022-08-12T21:30:12.704Z,19.34
2022-08-12T21:36:48.353Z,19.23
2022-08-12T21:42:27.770Z,19.13
2022-08-12T21:47:37.867Z,19.04
2022-08-12T21:54:07.196Z,18.95
2022-08-12T22:00:35.172Z,18.85
2022-08-12T22:06:42.907Z,18.74
2022-08-12T22:12:54.810Z,18.65
2022-08-12T22:19:03.639Z,18.59
2022-08-12T22:25:09.267Z,18.54
2022-08-12T22:31:30.038Z,18.54
2022-08-12T22:37:53.469Z,18.52
2022-08-12T22:44:54.820Z,18.46
2022-08-12T22:51:59.708Z,18.39
2022-08-12T22:58:18.854Z,18.35
2022-08-12T23:05:00.902Z,18.27
2022-08-12T23:11:08.576Z,18.21
2022-08-12T23:17:21.333Z,18.12
2022-08-12T23:23:26.728Z,18.04
2022-08-12T23:30:18.584Z,17.96
2022-08-12T23:36:17.715Z,17.89
2022-08-12T23:42:17.772Z,17.83
2022-08-12T23:48:31.340Z,17.75
2022-08-12T23:54:32.743Z,17.68
2022-08-12T23:59:48.564Z,17.59
